createdAt,value
2023-02-12T00:01:23.740Z,91.54
2023-02-12T00:03:50.361Z,91.72
2023-02-12T00:06:17.148Z,91.74
2023-02-12T00:08:43.918Z,92.33
2023-02-12T00:11:19.568Z,92.26
2023-02-12T00:13:46.326Z,91.88
2023-02-12T00:16:19.045Z,92.26
2023-02-12T00:18:46.011Z,91.02
2023-02-12T00:21:14.032Z,91.45
2023-02-12T00:23:44.070Z,92.18
2023-02-12T00:26:13.201Z,92.54
2023-02-12T00:28:45.162Z,92.77
2023-02-12T00:31:15.702Z,92.43
2023-02-12T00:33:42.584Z,91.64
2023-02-12T00:36:10.861Z,91.43
2023-02-12T00:38:37.825Z,91.19
2023-02-12T00:41:04.532Z,91.64
2023-02-12T00:43:31.060Z,91.36
2023-02-12T00:45:58.179Z,91.78
2023-02-12T00:48:26.726Z,92.16
2023-02-12T00:50:53.340Z,92.13
2023-02-12T00:53:19.937Z,91.95
2023-02-12T00:55:46.550Z,91.38
2023-02-12T00:58:13.064Z,91.99
2023-02-12T01:00:39.784Z,92.20
2023-02-12T01:03:06.367Z,92.10
2023-02-12T01:05:32.940Z,92.34
2023-02-12T01:07:59.536Z,92.56
2023-02-12T01:10:26.423Z,92.80
2023-02-12T01:12:53.008Z,93.02
2023-02-12T01:15:19.859Z,92.67
2023-02-12T01:17:46.892Z,92.79
2023-02-12T01:20:17.606Z,92.20
2023-02-12T01:22:44.494Z,92.94
2023-02-12T01:25:12.072Z,93.32
2023-02-12T01:27:38.954Z,93.42
2023-02-12T01:30:07.981Z,93.60
2023-02-12T01:32:35.219Z,94.10
2023-02-12T01:35:03.050Z,94.41
2023-02-12T01:37:29.602Z,94.13
2023-02-12T01:39:56.089Z,94.84
2023-02-12T01:42:22.566Z,94.60
2023-02-12T01:45:14.005Z,95.09
2023-02-12T01:47:45.066Z,94.78
2023-02-12T01:50:19.105Z,94.64
2023-02-12T01:52:54.153Z,95.01
2023-02-12T01:55:21.515Z,94.22
2023-02-12T01:57:48.570Z,94.15
2023-02-12T02:00:20.657Z,94.31
2023-02-12T02:02:49.953Z,94.75
2023-02-12T02:05:47.745Z,93.50
2023-02-12T02:08:14.345Z,94.48
2023-02-12T02:10:40.924Z,94.68
2023-02-12T02:13:26.703Z,94.53
2023-02-12T02:15:57.755Z,94.12
2023-02-12T02:18:56.078Z,94.75
2023-02-12T02:21:40.967Z,95.18
2023-02-12T02:24:16.409Z,95.24
2023-02-12T02:26:59.109Z,94.87
2023-02-12T02:29:53.695Z,95.15
2023-02-12T02:32:29.787Z,94.90
2023-02-12T02:35:06.780Z,95.36
2023-02-12T02:37:39.138Z,95.42
2023-02-12T02:40:24.869Z,95.39
2023-02-12T02:43:04.631Z,95.83
2023-02-12T02:45:45.838Z,95.18
2023-02-12T02:48:20.431Z,95.50
2023-02-12T02:50:52.893Z,95.74
2023-02-12T02:53:29.759Z,95.56
2023-02-12T02:55:58.504Z,94.79
2023-02-12T02:58:32.057Z,94.84
2023-02-12T03:01:25.606Z,95.35
2023-02-12T03:04:01.075Z,95.28
2023-02-12T03:06:46.357Z,95.17
2023-02-12T03:09:38.120Z,95.62
2023-02-12T03:12:14.101Z,95.59
2023-02-12T03:14:47.783Z,94.64
2023-02-12T03:17:24.975Z,95.66
2023-02-12T03:20:05.084Z,94.93
2023-02-12T03:22:35.847Z,95.05
2023-02-12T03:25:29.448Z,94.88
2023-02-12T03:27:55.937Z,95.34
2023-02-12T03:30:29.169Z,95.23
2023-02-12T03:33:14.526Z,94.78
2023-02-12T03:36:03.347Z,94.38
2023-02-12T03:38:42.381Z,94.25
2023-02-12T03:41:40.998Z,94.05
2023-02-12T03:44:20.119Z,94.17
2023-02-12T03:46:55.536Z,94.52
2023-02-12T03:49:30.063Z,94.76
2023-02-12T03:51:58.242Z,94.75
2023-02-12T03:54:24.990Z,94.91
2023-02-12T03:56:57.553Z,94.80
2023-02-12T03:59:25.415Z,95.08
2023-02-12T04:01:53.766Z,95.48
2023-02-12T04:04:21.402Z,95.00
2023-02-12T04:06:50.011Z,95.13
2023-02-12T04:09:17.400Z,94.86
2023-02-12T04:12:02.084Z,95.40
2023-02-12T04:15:02.537Z,95.18
2023-02-12T04:17:36.511Z,95.06
2023-02-12T04:20:15.467Z,95.26
2023-02-12T04:22:55.092Z,95.18
2023-02-12T04:25:41.031Z,94.70
2023-02-12T04:28:53.984Z,95.11
2023-02-12T04:31:36.512Z,95.46
2023-02-12T04:34:24.384Z,95.00
2023-02-12T04:37:02.428Z,94.84
2023-02-12T04:39:31.502Z,94.82
2023-02-12T04:41:59.779Z,94.81
2023-02-12T04:44:29.483Z,94.81
2023-02-12T04:46:56.148Z,94.81
2023-02-12T04:49:23.995Z,94.22
2023-02-12T04:51:51.413Z,93.98
2023-02-12T04:54:19.646Z,93.39
2023-02-12T04:56:46.238Z,93.45
2023-02-12T04:59:13.649Z,93.15
2023-02-12T05:01:41.046Z,92.29
2023-02-12T05:04:10.057Z,92.68
2023-02-12T05:06:37.640Z,93.26
2023-02-12T05:09:05.354Z,93.68
2023-02-12T05:11:31.902Z,93.46
2023-02-12T05:13:59.007Z,92.39
2023-02-12T05:16:25.615Z,92.34
2023-02-12T05:18:52.193Z,92.93
2023-02-12T05:21:18.746Z,93.05
2023-02-12T05:23:45.299Z,92.63
2023-02-12T05:26:19.266Z,93.28
2023-02-12T05:28:46.019Z,92.79
2023-02-12T05:31:15.785Z,92.74
2023-02-12T05:33:47.388Z,92.46
2023-02-12T05:36:17.168Z,92.40
2023-02-12T05:38:44.150Z,93.09
2023-02-12T05:41:16.703Z,92.91
2023-02-12T05:43:43.821Z,92.97
2023-02-12T05:46:11.686Z,92.30
2023-02-12T05:48:39.624Z,92.45
2023-02-12T05:51:12.542Z,93.23
2023-02-12T05:53:40.087Z,93.14
2023-02-12T05:56:23.165Z,94.21
2023-02-12T05:58:58.258Z,94.14
2023-02-12T06:01:28.257Z,94.51
2023-02-12T06:03:55.420Z,94.70
2023-02-12T06:06:22.128Z,94.45
2023-02-12T06:08:49.738Z,94.20
2023-02-12T06:11:17.564Z,94.53
2023-02-12T06:13:44.661Z,93.65
2023-02-12T06:16:23.065Z,93.84
2023-02-12T06:18:50.384Z,93.64
2023-02-12T06:21:18.628Z,93.91
2023-02-12T06:23:45.675Z,93.81
2023-02-12T06:26:12.358Z,93.85
2023-02-12T06:28:38.964Z,93.85
2023-02-12T06:31:17.912Z,94.02
2023-02-12T06:33:44.581Z,93.96
2023-02-12T06:36:11.276Z,94.31
2023-02-12T06:38:37.828Z,94.08
2023-02-12T06:41:04.777Z,94.13
2023-02-12T06:43:31.410Z,94.36
2023-02-12T06:46:02.104Z,94.42
2023-02-12T06:48:29.281Z,93.92
2023-02-12T06:50:55.988Z,94.21
2023-02-12T06:53:22.588Z,94.61
2023-02-12T06:55:49.178Z,94.68
2023-02-12T06:58:15.701Z,94.67
2023-02-12T07:00:42.274Z,95.00
2023-02-12T07:03:08.778Z,94.70
2023-02-12T07:05:37.872Z,95.21
2023-02-12T07:08:04.473Z,95.43
2023-02-12T07:10:31.000Z,95.16
2023-02-12T07:12:57.600Z,95.58
2023-02-12T07:15:24.192Z,95.82
2023-02-12T07:17:50.757Z,94.96
2023-02-12T07:20:17.371Z,95.38
2023-02-12T07:22:43.935Z,95.94
2023-02-12T07:25:10.478Z,95.69
2023-02-12T07:27:37.920Z,96.00
2023-02-12T07:30:06.121Z,95.68
2023-02-12T07:32:34.009Z,95.50
2023-02-12T07:35:00.701Z,95.49
2023-02-12T07:37:27.227Z,95.56
2023-02-12T07:39:53.766Z,95.68
2023-02-12T07:42:20.328Z,95.78
2023-02-12T07:44:49.709Z,95.81
2023-02-12T07:47:16.846Z,95.34
2023-02-12T07:49:43.473Z,95.25
2023-02-12T07:52:12.941Z,95.30
2023-02-12T07:54:39.929Z,94.89
2023-02-12T07:57:06.725Z,94.70
2023-02-12T07:59:33.485Z,94.52
2023-02-12T08:02:00.967Z,94.70
2023-02-12T08:04:27.845Z,94.05
2023-02-12T08:06:56.029Z,93.30
2023-02-12T08:09:28.486Z,93.37
2023-02-12T08:11:55.072Z,93.74
2023-02-12T08:14:22.082Z,93.64
2023-02-12T08:16:49.887Z,93.57
2023-02-12T08:19:21.719Z,93.41
2023-02-12T08:21:54.880Z,93.53
2023-02-12T08:24:24.188Z,92.56
2023-02-12T08:26:51.022Z,92.55
2023-02-12T08:29:26.352Z,91.82
2023-02-12T08:32:01.558Z,91.65
2023-02-12T08:34:30.987Z,90.79
2023-02-12T08:36:58.477Z,91.14
2023-02-12T08:39:26.877Z,90.18
2023-02-12T08:41:59.149Z,90.12
2023-02-12T08:44:26.195Z,89.98
2023-02-12T08:46:55.482Z,89.87
2023-02-12T08:49:27.481Z,90.39
2023-02-12T08:51:56.365Z,90.23
2023-02-12T08:54:25.910Z,90.26
2023-02-12T08:56:57.199Z,90.01
2023-02-12T08:59:24.397Z,90.66
2023-02-12T09:01:52.127Z,89.90
2023-02-12T09:04:21.764Z,89.92
2023-02-12T09:06:48.712Z,89.95
2023-02-12T09:09:16.304Z,89.76
2023-02-12T09:11:44.596Z,89.51
2023-02-12T09:14:14.197Z,89.83
2023-02-12T09:16:41.274Z,89.98
2023-02-12T09:19:09.057Z,90.21
2023-02-12T09:21:35.628Z,90.25
2023-02-12T09:24:03.622Z,90.59
2023-02-12T09:26:30.836Z,90.82
2023-02-12T09:28:57.564Z,90.99
2023-02-12T09:31:27.467Z,91.15
2023-02-12T09:33:58.160Z,90.90
2023-02-12T09:36:25.183Z,90.55
2023-02-12T09:38:53.810Z,90.63
2023-02-12T09:41:42.528Z,90.73
2023-02-12T09:44:25.485Z,90.19
2023-02-12T09:46:59.653Z,89.52
2023-02-12T09:49:41.170Z,89.51
2023-02-12T09:52:24.755Z,89.20
2023-02-12T09:54:51.331Z,89.54
2023-02-12T09:57:31.022Z,89.66
2023-02-12T10:00:07.400Z,89.62
2023-02-12T10:02:39.161Z,89.51
2023-02-12T10:05:15.349Z,89.59
2023-02-12T10:08:24.808Z,89.74
2023-02-12T10:11:24.398Z,89.87
2023-02-12T10:14:03.034Z,89.96
2023-02-12T10:16:57.266Z,89.91
2023-02-12T10:19:43.988Z,89.82
2023-02-12T10:22:17.848Z,89.58
2023-02-12T10:25:05.553Z,89.56
2023-02-12T10:27:43.357Z,89.53
2023-02-12T10:30:27.331Z,89.69
2023-02-12T10:33:06.402Z,89.29
2023-02-12T10:35:34.903Z,89.59
2023-02-12T10:38:16.317Z,89.56
2023-02-12T10:40:45.365Z,89.40
2023-02-12T10:43:13.315Z,88.96
2023-02-12T10:45:42.101Z,89.43
2023-02-12T10:48:32.874Z,89.90
2023-02-12T10:51:08.405Z,89.01
2023-02-12T10:53:37.416Z,89.17
2023-02-12T10:56:09.906Z,88.46
2023-02-12T10:58:36.491Z,88.90
2023-02-12T11:01:03.891Z,88.78
2023-02-12T11:03:37.591Z,88.26
2023-02-12T11:06:15.494Z,88.21
2023-02-12T11:08:42.505Z,87.87
2023-02-12T11:11:11.170Z,88.44
2023-02-12T11:13:41.397Z,88.76
2023-02-12T11:16:07.957Z,88.51
2023-02-12T11:18:36.491Z,87.62
2023-02-12T11:21:11.414Z,88.38
2023-02-12T11:23:40.438Z,87.78
2023-02-12T11:26:18.936Z,88.34
2023-02-12T11:28:56.419Z,88.18
2023-02-12T11:31:30.475Z,88.07
2023-02-12T11:34:12.332Z,89.09
2023-02-12T11:36:48.917Z,88.53
2023-02-12T11:39:26.700Z,88.63
2023-02-12T11:41:56.160Z,88.47
2023-02-12T11:44:36.011Z,88.22
2023-02-12T11:47:24.577Z,88.10
2023-02-12T11:49:56.412Z,87.17
2023-02-12T11:52:24.051Z,88.23
2023-02-12T11:54:53.488Z,87.08
2023-02-12T11:57:48.470Z,87.71
2023-02-12T12:00:27.033Z,88.62
2023-02-12T12:03:21.318Z,88.56
2023-02-12T12:05:51.412Z,88.59
2023-02-12T12:08:33.341Z,88.74
2023-02-12T12:11:09.405Z,88.09
2023-02-12T12:13:41.466Z,88.27
2023-02-12T12:16:56.729Z,88.67
2023-02-12T12:19:52.672Z,88.87
2023-02-12T12:22:49.805Z,88.38
2023-02-12T12:25:24.944Z,88.04
2023-02-12T12:28:15.570Z,88.46
2023-02-12T12:31:04.066Z,88.20
2023-02-12T12:33:39.933Z,88.35
2023-02-12T12:36:30.932Z,88.30
2023-02-12T12:39:31.857Z,88.12
2023-02-12T12:42:23.086Z,88.47
2023-02-12T12:45:14.303Z,88.48
2023-02-12T12:48:06.084Z,88.97
2023-02-12T12:50:55.702Z,89.14
2023-02-12T12:53:37.921Z,89.40
2023-02-12T12:56:19.132Z,87.79
2023-02-12T12:59:03.625Z,88.72
2023-02-12T13:01:49.487Z,88.80
2023-02-12T13:04:37.471Z,88.70
2023-02-12T13:07:38.561Z,88.88
2023-02-12T13:10:11.236Z,87.96
2023-02-12T13:13:05.744Z,88.10
2023-02-12T13:15:44.714Z,87.72
2023-02-12T13:18:19.235Z,86.98
2023-02-12T13:21:14.201Z,88.17
2023-02-12T13:23:55.838Z,87.95
2023-02-12T13:26:22.351Z,88.83
2023-02-12T13:28:54.960Z,88.37
2023-02-12T13:31:34.563Z,88.57
2023-02-12T13:34:11.018Z,87.99
2023-02-12T13:36:38.065Z,87.83
2023-02-12T13:39:28.256Z,86.56
2023-02-12T13:42:24.496Z,85.80
2023-02-12T13:45:12.428Z,87.37
2023-02-12T13:48:15.578Z,86.93
2023-02-12T13:51:05.904Z,86.55
2023-02-12T13:53:44.961Z,85.29
2023-02-12T13:56:33.663Z,85.88
2023-02-12T13:59:01.119Z,86.53
2023-02-12T14:01:47.543Z,87.34
2023-02-12T14:04:20.770Z,86.64
2023-02-12T14:07:02.146Z,86.92
2023-02-12T14:10:03.040Z,87.39
2023-02-12T14:12:34.707Z,85.62
2023-02-12T14:15:09.001Z,86.79
2023-02-12T14:17:35.494Z,87.10
2023-02-12T14:20:26.798Z,87.65
2023-02-12T14:23:22.269Z,86.75
2023-02-12T14:25:59.183Z,86.53
2023-02-12T14:28:29.768Z,86.37
2023-02-12T14:31:21.290Z,86.83
2023-02-12T14:33:50.691Z,86.27
2023-02-12T14:36:43.670Z,86.08
2023-02-12T14:39:19.399Z,86.48
2023-02-12T14:41:53.877Z,86.29
2023-02-12T14:44:22.647Z,86.79
2023-02-12T14:46:54.796Z,87.18
2023-02-12T14:49:23.940Z,87.60
2023-02-12T14:52:15.912Z,86.85
2023-02-12T14:54:56.522Z,87.44
2023-02-12T14:57:35.696Z,87.58
2023-02-12T15:00:18.807Z,88.11
2023-02-12T15:02:52.592Z,88.14
2023-02-12T15:05:26.862Z,87.69
2023-02-12T15:08:02.230Z,87.98
2023-02-12T15:10:37.265Z,87.86
2023-02-12T15:13:22.028Z,88.38
2023-02-12T15:16:09.343Z,88.47
2023-02-12T15:18:45.042Z,88.46
2023-02-12T15:21:31.500Z,88.64
2023-02-12T15:24:08.556Z,88.60
2023-02-12T15:26:48.227Z,88.21
2023-02-12T15:29:27.611Z,88.46
2023-02-12T15:31:57.742Z,88.08
2023-02-12T15:34:28.929Z,88.25
2023-02-12T15:36:58.671Z,87.87
2023-02-12T15:39:26.642Z,88.06
2023-02-12T15:41:53.277Z,87.99
2023-02-12T15:44:31.742Z,88.14
2023-02-12T15:47:12.276Z,87.81
2023-02-12T15:49:40.565Z,87.81
2023-02-12T15:52:18.878Z,88.50
2023-02-12T15:54:46.806Z,87.93
2023-02-12T15:57:21.657Z,88.14
2023-02-12T16:00:02.403Z,88.38
2023-02-12T16:02:32.852Z,88.32
2023-02-12T16:05:02.103Z,88.44
2023-02-12T16:07:34.807Z,88.28
2023-02-12T16:10:02.260Z,88.54
2023-02-12T16:12:33.042Z,88.48
2023-02-12T16:15:00.830Z,88.31
2023-02-12T16:17:36.010Z,88.32
2023-02-12T16:20:09.377Z,88.45
2023-02-12T16:22:42.083Z,88.48
2023-02-12T16:25:29.113Z,88.96
2023-02-12T16:27:55.579Z,88.86
2023-02-12T16:30:26.784Z,88.71
2023-02-12T16:32:53.931Z,88.42
2023-02-12T16:35:34.680Z,88.47
2023-02-12T16:38:41.891Z,88.78
2023-02-12T16:41:26.892Z,88.75
2023-02-12T16:44:02.343Z,88.44
2023-02-12T16:46:31.362Z,88.19
2023-02-12T16:49:00.590Z,88.42
2023-02-12T16:51:31.309Z,88.39
2023-02-12T16:54:00.333Z,88.44
2023-02-12T16:56:30.661Z,88.47
2023-02-12T16:58:58.753Z,88.77
2023-02-12T17:01:27.983Z,88.34
2023-02-12T17:03:55.568Z,88.42
2023-02-12T17:06:25.514Z,88.84
2023-02-12T17:08:52.201Z,88.88
2023-02-12T17:11:19.321Z,89.15
2023-02-12T17:13:47.653Z,88.93
2023-02-12T17:16:29.430Z,88.66
2023-02-12T17:18:57.441Z,88.94
2023-02-12T17:21:38.353Z,89.06
2023-02-12T17:24:19.864Z,89.46
2023-02-12T17:26:46.480Z,89.36
2023-02-12T17:29:13.121Z,89.04
2023-02-12T17:31:39.813Z,88.88
2023-02-12T17:34:06.537Z,89.13
2023-02-12T17:36:33.365Z,88.95
2023-02-12T17:39:00.831Z,89.38
2023-02-12T17:41:27.392Z,89.36
2023-02-12T17:43:53.878Z,89.22
2023-02-12T17:46:23.230Z,89.05
2023-02-12T17:48:49.809Z,89.28
2023-02-12T17:51:16.728Z,89.54
2023-02-12T17:53:43.779Z,89.46
2023-02-12T17:56:12.545Z,89.58
2023-02-12T17:58:40.480Z,89.72
2023-02-12T18:01:09.831Z,89.52
2023-02-12T18:03:36.850Z,89.63
2023-02-12T18:06:03.961Z,89.42
2023-02-12T18:08:31.318Z,89.40
2023-02-12T18:10:58.276Z,89.27
2023-02-12T18:13:25.327Z,89.23
2023-02-12T18:15:51.910Z,89.39
2023-02-12T18:18:18.843Z,89.03
2023-02-12T18:20:45.365Z,88.90
2023-02-12T18:23:12.574Z,88.77
2023-02-12T18:25:43.121Z,89.11
2023-02-12T18:28:10.524Z,89.29
2023-02-12T18:30:38.946Z,89.12
2023-02-12T18:33:06.278Z,89.15
2023-02-12T18:35:33.588Z,88.91
2023-02-12T18:38:00.124Z,89.06
2023-02-12T18:40:26.609Z,89.52
2023-02-12T18:42:53.264Z,89.50
2023-02-12T18:45:19.952Z,89.48
2023-02-12T18:47:46.474Z,89.42
2023-02-12T18:50:13.049Z,89.58
2023-02-12T18:52:39.539Z,89.82
2023-02-12T18:55:07.360Z,89.66
2023-02-12T18:57:33.846Z,89.62
2023-02-12T19:00:00.412Z,89.68
2023-02-12T19:02:26.979Z,89.37
2023-02-12T19:04:53.612Z,89.76
2023-02-12T19:07:20.181Z,89.96
2023-02-12T19:09:47.043Z,89.53
2023-02-12T19:12:13.543Z,89.77
2023-02-12T19:14:40.109Z,89.84
2023-02-12T19:17:06.696Z,90.02
2023-02-12T19:19:33.184Z,89.84
2023-02-12T19:21:59.743Z,89.73
2023-02-12T19:24:28.640Z,90.00
2023-02-12T19:27:01.557Z,89.99
2023-02-12T19:29:28.233Z,89.82
2023-02-12T19:31:54.823Z,90.43
2023-02-12T19:34:23.149Z,90.43
2023-02-12T19:36:49.965Z,90.21
2023-02-12T19:39:24.198Z,90.79
2023-02-12T19:41:51.298Z,90.41
2023-02-12T19:44:20.729Z,90.67
2023-02-12T19:46:48.588Z,90.61
2023-02-12T19:49:22.425Z,90.68
2023-02-12T19:51:49.328Z,90.74
2023-02-12T19:54:17.481Z,90.58
2023-02-12T19:56:44.535Z,90.37
2023-02-12T19:59:14.428Z,90.74
2023-02-12T20:01:40.985Z,90.60
2023-02-12T20:04:07.715Z,90.60
2023-02-12T20:06:36.833Z,90.83
2023-02-12T20:09:04.496Z,91.04
2023-02-12T20:11:32.997Z,90.94
2023-02-12T20:14:01.103Z,91.02
2023-02-12T20:16:33.950Z,91.02
2023-02-12T20:19:04.786Z,90.90
2023-02-12T20:21:31.737Z,91.00
2023-02-12T20:23:59.226Z,90.99
2023-02-12T20:26:25.922Z,91.04
2023-02-12T20:28:52.503Z,91.08
2023-02-12T20:31:27.888Z,91.19
2023-02-12T20:33:56.642Z,91.32
2023-02-12T20:36:24.252Z,91.14
2023-02-12T20:38:54.010Z,91.24
2023-02-12T20:41:20.564Z,91.27
2023-02-12T20:43:47.155Z,91.06
2023-02-12T20:46:16.633Z,91.57
2023-02-12T20:48:43.811Z,91.14
2023-02-12T20:51:13.220Z,91.52
2023-02-12T20:53:41.202Z,91.59
2023-02-12T20:56:13.528Z,91.38
2023-02-12T20:58:44.597Z,91.36
2023-02-12T21:01:14.449Z,91.43
2023-02-12T21:03:41.330Z,91.50
2023-02-12T21:06:07.934Z,91.62
2023-02-12T21:08:38.694Z,91.67
2023-02-12T21:11:17.199Z,91.69
2023-02-12T21:13:53.854Z,91.73
2023-02-12T21:16:37.842Z,91.59
2023-02-12T21:19:04.614Z,91.60
2023-02-12T21:21:34.062Z,91.77
2023-02-12T21:24:02.259Z,91.70
2023-02-12T21:26:30.854Z,91.69
2023-02-12T21:28:59.902Z,92.04
2023-02-12T21:31:29.055Z,92.11
2023-02-12T21:33:57.248Z,91.96
2023-02-12T21:36:32.447Z,92.06
2023-02-12T21:38:59.606Z,92.02
2023-02-12T21:41:29.279Z,92.14
2023-02-12T21:44:01.090Z,92.36
2023-02-12T21:46:29.024Z,92.01
2023-02-12T21:48:55.934Z,92.29
2023-02-12T21:51:40.162Z,92.39
2023-02-12T21:54:09.538Z,92.26
2023-02-12T21:56:37.634Z,92.56
2023-02-12T21:59:04.189Z,92.53
2023-02-12T22:01:33.059Z,92.78
2023-02-12T22:04:04.522Z,92.52
2023-02-12T22:06:31.260Z,92.61
2023-02-12T22:09:02.431Z,92.84
2023-02-12T22:11:28.981Z,92.86
2023-02-12T22:13:55.531Z,92.80
2023-02-12T22:16:24.899Z,93.03
2023-02-12T22:18:54.946Z,92.85
2023-02-12T22:21:22.523Z,92.82
2023-02-12T22:23:49.549Z,93.12
2023-02-12T22:26:21.437Z,92.98
2023-02-12T22:28:49.378Z,92.79
2023-02-12T22:31:19.601Z,93.06
2023-02-12T22:33:47.083Z,92.91
2023-02-12T22:36:13.704Z,93.04
2023-02-12T22:38:41.510Z,93.21
2023-02-12T22:41:09.306Z,93.19
2023-02-12T22:43:38.327Z,93.18
2023-02-12T22:46:06.048Z,93.28
2023-02-12T22:48:32.581Z,93.29
2023-02-12T22:50:59.743Z,93.59
2023-02-12T22:53:26.785Z,93.05
2023-02-12T22:55:53.313Z,93.62
2023-02-12T22:58:19.942Z,93.39
2023-02-12T23:00:46.479Z,93.72
2023-02-12T23:03:12.961Z,93.49
2023-02-12T23:05:39.479Z,93.96
2023-02-12T23:08:06.752Z,93.85
2023-02-12T23:10:33.741Z,93.86
2023-02-12T23:13:02.164Z,93.88
2023-02-12T23:15:28.877Z,94.31
2023-02-12T23:17:55.405Z,94.12
2023-02-12T23:20:22.067Z,93.93
2023-02-12T23:22:48.624Z,94.07
2023-02-12T23:25:15.155Z,94.04
2023-02-12T23:27:41.765Z,94.48
2023-02-12T23:30:09.009Z,94.53
2023-02-12T23:32:35.550Z,94.46
2023-02-12T23:35:02.088Z,94.61
2023-02-12T23:37:28.556Z,94.52
2023-02-12T23:39:55.102Z,94.89
2023-02-12T23:42:21.616Z,94.76
2023-02-12T23:44:48.151Z,94.75
2023-02-12T23:47:14.680Z,95.07
2023-02-12T23:49:41.274Z,94.92
2023-02-12T23:52:08.022Z,95.12
2023-02-12T23:54:34.529Z,95.18
2023-02-12T23:57:00.993Z,95.24
2023-02-12T23:59:27.470Z,95.06
